Suttons Bay, MI (49682)

6:14 PM EST on February 07, 2016 (GMT -0500)
Knorrwood Bluffs | | Change Station
CLOSE
Current Station
Personal Weather Station
Location: Suttons Bay, MI
Elevation: 676 ft
Nearby Weather Stations

Elev 676 ft 44.96 °N, 85.61 °W | Updated 10 seconds ago

Overcast
Overcast
39.4 °F
Feels Like 39 °F
N
0.0
Wind Variable Wind from ESE
Gusts 3.0 mph

Today
High -- | Low -- °F
--% Chance of Precip.
Yesterday
High -- | Low -- °F
Precip. -- in
Pressure 29.65 in
Visibility 10.0 miles
Clouds Overcast 3000 ft
Windchill 39 °F
Dew Point 33 °F
Humidity 79%
Rainfall 0.04 in
Snow Depth Not available.
7:55 AM 5:58 PM
Waning Crescent, 1% visible
METAR KTVC 072253Z VRB06KT 10SM OVC030 04/M01 A2964 RMK AO2 SLP041 T00441011
Pressure 29.65 in
Visibility 10.0 miles
Clouds Overcast 3000 ft
Windchill 39 °F
Dew Point 33 °F
Humidity 79%
Rainfall 0.04 in
Snow Depth Not available.
7:55 AM 5:58 PM
Waning Crescent, 1% visible
METAR KTVC 072253Z VRB06KT 10SM OVC030 04/M01 A2964 RMK AO2 SLP041 T00441011

10-Day Weather Forecast

Almanac

Astronomy

Feb. 07, 2016 Rise Set
Actual Time
Civil Twilight
Nautical Twilight
Astronomical Twilight
Moon
Length of Visible Light
Length of Day
Tomorrow will be .
, % of the Moon is Illuminated

Today's Extremes

State Highs State Lows

Community

WunderPhotos

Upload Photos

1,891,325 photos uploaded!

WunderBlog® & News

Nearby

Air Quality

  Air Quality AQ Index Pollutant
Not available.

Snow Depth

Station Depth Elevation

Earthquake Activity

City Distance Mag. Time & Date
Minimum magnitude displayed is 2.5.

Coastal Water Temperatures

Place Temperature

Stations

Nearby Weather Stations

Station Location Temp. Windchill Dew Point Humidity Wind Precip. Elev Updated Type
                   

Watches & Warnings

There are currently no watches in effect.